Time;durP1;ratioP1;P1;durP2;ratioP2;P2;SDS_P1;SDS_P2;PMS_P1;PMS_P2;Temp;Humidity;BMP_temperature;BMP_pressure;BME280_temperature;BME280_humidity;BME280_pressure;Samples;Min_cycle;Max_cycle;Signal;HPM_P1;HPM_P2
2023/01/11 00:07:39;;;;;;;6.00;1.63;;;;;;;7.59;100.00;100419.28;20851293;28;20045;-82
2023/01/11 00:17:40;;;;;;;6.97;1.48;;;;;;;7.69;100.00;100415.78;20847789;28;20045;-82
2023/01/11 00:27:42;;;;;;;4.22;1.05;;;;;;;7.80;100.00;100418.34;20838844;28;20042;-83
2023/01/11 00:37:43;;;;;;;5.68;1.42;;;;;;;7.89;100.00;100400.91;20845538;28;20481;-82
2023/01/11 00:47:56;;;;;;;4.32;1.17;;;;;;;7.88;100.00;100367.91;20821675;28;20054;-82
2023/01/11 00:57:58;;;;;;;9.55;1.40;;;;;;;7.92;100.00;100356.59;20839841;28;20049;-82
2023/01/11 01:07:59;;;;;;;6.63;1.35;;;;;;;7.84;100.00;100347.94;20838384;28;20176;-83
2023/01/11 01:18:00;;;;;;;4.05;1.38;;;;;;;7.94;100.00;100339.19;20828162;28;20637;-82
2023/01/11 01:28:02;;;;;;;5.43;1.20;;;;;;;8.04;100.00;100340.00;20844212;28;20106;-82
2023/01/11 01:38:03;;;;;;;4.38;1.20;;;;;;;8.01;100.00;100347.00;20865957;28;20125;-82
2023/01/11 01:48:05;;;;;;;4.95;1.35;;;;;;;7.96;100.00;100340.06;20873571;28;20057;-81
2023/01/11 01:58:06;;;;;;;4.50;1.10;;;;;;;7.82;100.00;100341.88;20832433;28;20045;-81
2023/01/11 02:08:08;;;;;;;5.88;1.08;;;;;;;7.74;100.00;100346.25;20840727;28;20049;-82
2023/01/11 02:18:09;;;;;;;3.53;1.00;;;;;;;7.66;100.00;100337.59;20847775;28;20053;-81
2023/01/11 02:28:10;;;;;;;4.97;0.98;;;;;;;7.60;100.00;100332.44;20835164;28;20056;-81
2023/01/11 02:38:12;;;;;;;4.78;1.00;;;;;;;7.50;100.00;100320.31;20843322;28;20146;-82
2023/01/11 02:48:13;;;;;;;6.15;1.00;;;;;;;7.50;100.00;100317.72;20832320;28;20041;-81
2023/01/11 02:58:15;;;;;;;4.65;0.98;;;;;;;7.44;100.00;100295.16;20824207;28;20080;-81
2023/01/11 03:08:16;;;;;;;3.00;0.93;;;;;;;7.55;100.00;100276.88;20828947;28;20048;-81
2023/01/11 03:18:17;;;;;;;6.65;1.17;;;;;;;7.63;100.00;100269.88;20827962;28;20045;-82
2023/01/11 03:28:18;;;;;;;5.72;0.90;;;;;;;7.77;100.00;100265.47;20828434;28;20069;-82
2023/01/11 03:38:20;;;;;;;3.30;0.90;;;;;;;7.84;100.00;100263.66;20807557;22;20046;-75
2023/01/11 03:48:21;;;;;;;4.60;0.80;;;;;;;8.01;100.00;100256.59;20697567;28;20057;-74
2023/01/11 03:58:22;;;;;;;3.15;0.95;;;;;;;8.08;100.00;100253.06;20688272;28;20058;-75
2023/01/11 04:08:24;;;;;;;5.75;0.98;;;;;;;8.14;100.00;100242.56;20692344;28;20073;-75
2023/01/11 04:18:25;;;;;;;2.00;0.80;;;;;;;8.23;100.00;100224.22;20689525;28;20516;-75
2023/01/11 04:28:26;;;;;;;4.85;1.08;;;;;;;8.28;100.00;100208.53;20689691;28;20062;-75
2023/01/11 04:38:28;;;;;;;2.08;0.60;;;;;;;8.44;100.00;100212.78;20689463;28;20050;-73
2023/01/11 04:48:29;;;;;;;5.15;0.90;;;;;;;8.56;100.00;100190.03;20684839;28;20054;-73
2023/01/11 04:58:30;;;;;;;2.90;0.98;;;;;;;8.73;100.00;100186.38;20691736;28;20529;-74
2023/01/11 05:08:31;;;;;;;3.88;0.90;;;;;;;8.83;100.00;100187.13;20682908;28;20109;-75
2023/01/11 05:18:33;;;;;;;2.55;0.95;;;;;;;8.96;100.00;100166.97;20694685;28;20046;-74
2023/01/11 05:28:34;;;;;;;2.03;0.80;;;;;;;8.94;100.00;100159.13;20679758;28;20117;-74
2023/01/11 05:38:35;;;;;;;2.80;0.77;;;;;;;9.08;100.00;100151.09;20688624;28;20050;-74
2023/01/11 05:48:37;;;;;;;2.05;0.60;;;;;;;9.13;100.00;100130.16;20682743;28;20048;-73
2023/01/11 05:58:38;;;;;;;1.40;0.50;;;;;;;9.25;100.00;100143.06;20686838;28;20057;-75
2023/01/11 06:08:39;;;;;;;1.77;0.63;;;;;;;9.22;100.00;100127.41;20681498;28;20054;-73
2023/01/11 06:18:41;;;;;;;3.13;0.68;;;;;;;9.31;100.00;100127.28;20682149;28;20058;-75
2023/01/11 06:28:42;;;;;;;2.08;0.50;;;;;;;9.26;100.00;100110.81;20682560;28;20049;-75
2023/01/11 06:38:43;;;;;;;2.97;0.40;;;;;;;9.31;100.00;100084.63;20681137;28;20070;-75
2023/01/11 06:48:44;;;;;;;2.10;0.60;;;;;;;9.21;100.00;100083.91;20697476;28;20119;-73
2023/01/11 06:58:46;;;;;;;1.20;0.40;;;;;;;9.37;100.00;100058.38;20695772;28;20054;-75
2023/01/11 07:08:48;;;;;;;1.90;0.40;;;;;;;9.38;100.00;100055.72;20703042;28;20050;-76
2023/01/11 07:18:50;;;;;;;3.50;0.80;;;;;;;9.40;100.00;100048.75;20688809;28;20050;-76
2023/01/11 07:28:51;;;;;;;1.88;0.65;;;;;;;9.44;100.00;100058.25;20703068;28;20054;-76
2023/01/11 07:38:52;;;;;;;0.95;0.43;;;;;;;9.55;100.00;100063.31;20689530;28;20057;-76
2023/01/11 07:48:53;;;;;;;1.48;0.60;;;;;;;9.56;100.00;100064.16;20698687;28;20058;-75
2023/01/11 07:58:55;;;;;;;2.30;0.63;;;;;;;9.75;100.00;100070.81;20689416;28;20493;-73
2023/01/11 08:08:56;;;;;;;2.03;0.85;;;;;;;9.52;100.00;100079.88;20692540;28;20096;-74
2023/01/11 08:18:57;;;;;;;3.22;0.70;;;;;;;9.43;100.00;100082.66;20691491;28;20106;-74
2023/01/11 08:28:58;;;;;;;2.65;0.68;;;;;;;9.54;100.00;100087.72;20690089;28;20080;-74
2023/01/11 08:39:00;;;;;;;3.17;0.88;;;;;;;9.45;100.00;100093.09;20703083;28;20058;-74
2023/01/11 08:49:01;;;;;;;1.90;0.70;;;;;;;9.41;100.00;100092.28;20678986;28;20053;-75
2023/01/11 08:59:03;;;;;;;2.80;1.00;;;;;;;9.45;100.00;100093.97;20692506;28;20058;-79
2023/01/11 09:09:04;;;;;;;3.47;1.17;;;;;;;9.47;100.00;100105.22;20715505;28;20052;-78
2023/01/11 09:19:05;;;;;;;1.77;0.73;;;;;;;9.41;100.00;100107.09;20714519;28;20097;-80
2023/01/11 09:29:29;;;;;;;3.00;0.63;;;;;;;9.39;100.00;100106.25;20750017;28;20483;-83
2023/01/11 09:39:32;;;;;;;3.90;1.20;;;;;;;9.39;100.00;100119.31;20764694;28;20056;-84
2023/01/11 09:49:33;;;;;;;4.20;1.25;;;;;;;9.47;100.00;100128.75;20840202;23;20100;-71
2023/01/11 09:59:36;;;;;;;3.28;1.30;;;;;;;9.44;100.00;100139.28;20765910;28;20046;-70
2023/01/11 10:09:38;;;;;;;2.30;0.70;;;;;;;9.46;100.00;100154.94;20767088;28;20060;-69
2023/01/11 10:20:00;;;;;;;4.20;1.50;;;;;;;9.40;100.00;100137.59;20771465;28;20481;-69
2023/01/11 10:30:12;;;;;;;2.85;1.00;;;;;;;9.42;100.00;100134.94;20787971;28;20061;-70
2023/01/11 10:50:33;;;;;;;6.63;2.00;;;;;;;9.63;100.00;100120.66;20782627;28;20469;-69
2023/01/11 11:00:35;;;;;;;3.67;1.27;;;;;;;9.62;100.00;100129.41;20772641;28;20053;-70
2023/01/11 11:10:36;;;;;;;4.60;1.80;;;;;;;9.66;100.00;100129.31;20778403;28;20568;-71
2023/01/11 11:20:38;;;;;;;3.05;1.30;;;;;;;9.69;100.00;100128.44;20775366;28;20060;-71
2023/01/11 11:30:39;;;;;;;2.85;1.10;;;;;;;9.59;100.00;100137.31;20772760;28;20061;-73
2023/01/11 11:40:41;;;;;;;3.92;1.50;;;;;;;9.57;100.00;100129.47;20776862;28;20052;-72
2023/01/11 11:50:42;;;;;;;3.95;1.80;;;;;;;9.57;100.00;100128.63;20772991;28;20057;-71
2023/01/11 12:00:47;;;;;;;5.30;2.20;;;;;;;9.64;100.00;100131.13;20775835;28;20473;-71
2023/01/11 12:10:48;;;;;;;5.65;1.70;;;;;;;9.64;100.00;100148.56;20770513;28;20049;-72
2023/01/11 12:20:49;;;;;;;6.45;1.70;;;;;;;9.55;100.00;100151.31;20779917;28;20383;-72
2023/01/11 12:30:51;;;;;;;3.53;1.50;;;;;;;9.79;100.00;100129.13;20770031;28;20057;-70
2023/01/11 12:40:52;;;;;;;6.03;2.45;;;;;;;9.95;100.00;100121.00;20775997;28;20053;-70
2023/01/11 12:50:53;;;;;;;6.90;2.70;;;;;;;9.91;100.00;100135.00;20763634;28;20400;-69
2023/01/11 13:00:55;;;;;;;4.72;1.73;;;;;;;10.01;100.00;100146.16;20772854;28;20108;-69
2023/01/11 13:10:56;;;;;;;4.75;1.63;;;;;;;10.05;100.00;100146.97;20765158;28;20461;-69
2023/01/11 13:20:57;;;;;;;3.42;1.83;;;;;;;9.96;100.00;100164.56;20770800;28;20057;-68
2023/01/11 13:31:02;;;;;;;4.93;2.60;;;;;;;10.08;100.00;100178.34;20765992;28;20058;-69
2023/01/11 13:41:03;;;;;;;7.13;3.00;;;;;;;10.06;100.00;100211.47;20768250;28;20494;-69
2023/01/11 13:51:05;;;;;;;4.15;2.53;;;;;;;10.26;100.00;100202.47;20765556;28;20494;-69
2023/01/11 14:01:07;;;;;;;5.15;2.70;;;;;;;10.13;100.00;100208.75;20756252;28;20049;-68
2023/01/11 14:11:08;;;;;;;4.07;2.03;;;;;;;10.09;100.00;100229.75;20765446;28;20054;-69
2023/01/11 14:21:09;;;;;;;5.90;2.85;;;;;;;9.99;100.00;100235.13;20758210;28;20049;-69
2023/01/11 14:31:11;;;;;;;4.53;2.70;;;;;;;9.97;100.00;100255.22;20767388;28;20053;-68
2023/01/11 14:41:12;;;;;;;4.13;1.50;;;;;;;9.91;100.00;100270.13;20758119;28;20073;-68
2023/01/11 14:51:13;;;;;;;5.88;1.20;;;;;;;9.97;100.00;100285.75;20762181;28;20050;-68
2023/01/11 15:01:15;;;;;;;4.50;1.20;;;;;;;9.80;100.00;100309.53;20752838;28;20076;-68
2023/01/11 15:11:16;;;;;;;5.55;1.10;;;;;;;9.55;100.00;100318.59;20774253;28;20149;-67
2023/01/11 15:21:17;;;;;;;6.25;1.33;;;;;;;9.42;100.00;100321.34;20771319;28;20060;-68
2023/01/11 15:31:18;;;;;;;6.70;2.20;;;;;;;9.22;100.00;100344.22;20768525;28;20513;-69
2023/01/11 15:42:04;;;;;;;9.60;2.15;;;;;;;9.28;100.00;100357.22;20758641;28;20053;-68
2023/01/11 15:51:49;;;;;;;10.05;2.00;;;;;;;9.10;100.00;100378.31;20836905;23;20133;-77
2023/01/11 16:01:50;;;;;;;10.80;2.90;;;;;;;9.04;100.00;100400.13;20683258;28;20061;-77
2023/01/11 16:22:45;;;;;;;10.48;2.95;;;;;;;8.91;100.00;100451.63;20527853;28;20082;-76
2023/01/11 16:32:55;;;;;;;8.55;1.80;;;;;;;9.11;100.00;100461.91;20694126;28;20104;-76
2023/01/11 16:43:24;;;;;;;9.20;1.60;;;;;;;8.77;100.00;100470.84;20664395;28;20050;-77
2023/01/11 16:53:50;;;;;;;10.43;2.47;;;;;;;8.55;100.00;100484.06;20691388;28;20039;-77
2023/01/11 17:04:18;;;;;;;9.77;2.50;;;;;;;8.19;100.00;100498.13;20679103;28;20406;-77
2023/01/11 17:14:29;;;;;;;9.30;4.07;;;;;;;7.98;100.00;100510.38;20680674;28;20058;-77
2023/01/11 17:24:33;;;;;;;12.98;2.85;;;;;;;7.87;100.00;100542.59;20683848;28;20454;-76
2023/01/11 17:45:47;;;;;;;13.82;4.25;;;;;;;7.65;100.00;100579.09;20649580;28;20066;-76
2023/01/11 18:17:40;;;;;;;11.73;3.42;;;;;;;7.40;100.00;100612.09;20671133;28;20121;-77
2023/01/11 18:27:55;;;;;;;12.25;2.88;;;;;;;7.23;100.00;100637.25;20676115;28;20127;-78
2023/01/11 18:38:00;;;;;;;10.80;3.00;;;;;;;7.37;100.00;100645.97;20677325;28;20081;-78
2023/01/11 18:48:01;;;;;;;12.10;2.83;;;;;;;7.16;100.00;100669.38;20698424;28;20137;-78
2023/01/11 18:58:02;;;;;;;13.40;3.17;;;;;;;7.07;100.00;100687.56;20691325;28;20170;-77
2023/01/11 19:08:04;;;;;;;17.80;3.40;;;;;;;6.93;100.00;100683.19;20693928;28;20069;-77
2023/01/11 19:18:05;;;;;;;13.88;2.50;;;;;;;7.01;100.00;100700.56;20693355;28;20058;-76
2023/01/11 19:28:07;;;;;;;11.15;2.40;;;;;;;7.28;100.00;100711.09;20686747;28;20444;-78
2023/01/11 19:38:08;;;;;;;12.65;2.30;;;;;;;7.37;100.00;100716.28;20689879;28;20124;-79
2023/01/11 19:48:11;;;;;;;13.25;4.05;;;;;;;7.34;100.00;100715.44;20681930;28;20534;-78
2023/01/11 19:58:12;;;;;;;10.85;2.90;;;;;;;7.27;100.00;100713.66;20685245;28;20060;-78
2023/01/11 20:08:15;;;;;;;10.77;2.30;;;;;;;7.16;100.00;100721.44;20695641;28;20050;-77
2023/01/11 20:18:17;;;;;;;13.23;3.17;;;;;;;7.13;100.00;100717.09;20689459;28;20085;-78
2023/01/11 20:28:19;;;;;;;13.63;2.25;;;;;;;7.04;100.00;100708.38;20693739;28;20057;-77
2023/01/11 20:38:20;;;;;;;11.48;2.58;;;;;;;7.16;100.00;100713.63;20682417;28;20053;-79
2023/01/11 20:48:22;;;;;;;12.65;2.28;;;;;;;7.15;100.00;100694.53;20690153;28;20057;-77
2023/01/11 20:58:23;;;;;;;14.27;3.28;;;;;;;7.08;100.00;100692.78;20679097;28;20049;-73
2023/01/11 21:08:24;;;;;;;11.45;3.22;;;;;;;6.90;100.00;100690.13;20686577;28;20057;-73
2023/01/11 21:18:26;;;;;;;11.57;2.10;;;;;;;6.82;100.00;100687.47;20688634;28;20089;-73
2023/01/11 21:28:28;;;;;;;14.90;2.30;;;;;;;6.91;100.00;100689.25;20681690;28;20069;-73
2023/01/11 21:38:29;;;;;;;16.45;2.53;;;;;;;7.07;100.00;100677.16;20685404;28;20061;-73
2023/01/11 21:48:31;;;;;;;20.38;2.88;;;;;;;7.00;100.00;100665.88;20676810;28;20056;-72
2023/01/11 21:58:32;;;;;;;11.75;2.95;;;;;;;6.96;100.00;100661.50;20684403;28;20124;-73
2023/01/11 22:08:34;;;;;;;21.17;2.97;;;;;;;7.11;100.00;100671.97;20677152;28;20069;-73
2023/01/11 22:18:35;;;;;;;12.27;2.70;;;;;;;7.03;100.00;100662.38;20687880;28;20462;-72
2023/01/11 22:29:10;;;;;;;13.10;2.25;;;;;;;7.03;100.00;100680.59;20674742;28;20050;-73
2023/01/11 22:38:57;;;;;;;14.88;2.50;;;;;;;7.10;100.00;100674.56;20683680;28;20050;-72
2023/01/11 22:48:59;;;;;;;15.68;2.13;;;;;;;7.10;100.00;100679.78;20677324;28;20057;-73
2023/01/11 22:59:00;;;;;;;14.38;2.00;;;;;;;7.01;100.00;100685.81;20680865;28;20058;-72
2023/01/11 23:09:02;;;;;;;15.18;1.90;;;;;;;7.17;100.00;100677.19;20682049;28;20050;-72
2023/01/11 23:19:03;;;;;;;9.00;2.10;;;;;;;7.24;100.00;100679.81;20682115;28;20479;-72
2023/01/11 23:29:04;;;;;;;14.80;2.17;;;;;;;7.15;100.00;100673.72;20694164;28;20062;-72
2023/01/11 23:39:05;;;;;;;11.70;3.08;;;;;;;7.39;100.00;100675.50;20690839;28;20054;-72
2023/01/11 23:49:07;;;;;;;11.05;1.90;;;;;;;7.34;100.00;100647.72;20700603;28;20058;-72
2023/01/11 23:59:08;;;;;;;15.40;2.47;;;;;;;7.24;100.00;100646.81;20690313;28;20050;-72
